Terminal Aerodrome Forecast
Issued by NWS

Home | Current Version | Previous Version | Text Only | Print | Product List | Glossary On
Versions: 1 2 3 4 5 6 7 8 9 10 11 12
000
FTUS42 TJSJ 211100 RRA
TAFJPS
TAF
TJPS 211142Z 2112/2212 VRB03KT P6SM FEW025
     FM211500 12010KT P6SM FEW030 SCT060
     FM212300 VRB04KT P6SM FEW030
      AMD NOT SKED TIL 220300=

USA.gov is the U.S. government's official web portal to all federal, state and local government web resources and services.